createdAt,value
2023-05-01T00:05:02.995Z,100049.00
2023-05-01T00:10:05.286Z,100038.44
2023-05-01T00:15:07.816Z,100037.69
2023-05-01T00:20:10.164Z,100027.59
2023-05-01T00:25:12.105Z,100026.84
2023-05-01T00:30:13.983Z,100026.50
2023-05-01T00:35:16.680Z,100017.59
2023-05-01T00:40:18.622Z,100021.97
2023-05-01T00:45:20.690Z,100010.59
2023-05-01T00:50:22.806Z,100006.22
2023-05-01T00:55:26.083Z,100004.28
2023-05-01T01:00:29.544Z,99996.78
2023-05-01T01:05:35.766Z,99984.22
2023-05-01T01:10:51.176Z,99976.44
2023-05-01T01:16:13.996Z,99977.47
2023-05-01T01:21:23.658Z,99978.19
2023-05-01T01:26:59.374Z,99961.84
2023-05-01T01:32:23.314Z,99963.00
2023-05-01T01:38:03.775Z,99967.47
2023-05-01T01:43:13.625Z,99960.50
2023-05-01T01:48:24.481Z,99954.09
2023-05-01T01:53:28.509Z,99945.66
2023-05-01T01:58:32.171Z,99943.66
2023-05-01T02:03:36.161Z,99939.78
2023-05-01T02:08:38.513Z,99936.66
2023-05-01T02:13:42.277Z,99937.84
2023-05-01T02:18:46.705Z,99933.31
2023-05-01T02:23:48.940Z,99933.13
2023-05-01T02:28:50.809Z,99926.97
2023-05-01T02:33:52.542Z,99924.75
2023-05-01T02:38:55.096Z,99923.84
2023-05-01T02:44:02.048Z,99920.66
2023-05-01T02:49:06.047Z,99911.97
2023-05-01T02:54:09.145Z,99914.31
2023-05-01T02:59:10.991Z,99912.91
2023-05-01T03:04:12.783Z,99910.63
2023-05-01T03:09:14.796Z,99912.59
2023-05-01T03:14:16.577Z,99899.41
2023-05-01T03:19:18.333Z,99900.91
2023-05-01T03:24:20.092Z,99896.63
2023-05-01T03:29:22.018Z,99896.75
2023-05-01T03:34:24.118Z,99887.97
2023-05-01T03:39:26.028Z,99889.81
2023-05-01T03:44:46.566Z,99881.16
2023-05-01T03:49:49.222Z,99877.34
2023-05-01T03:54:51.075Z,99874.00
2023-05-01T04:00:00.307Z,99872.22
2023-05-01T04:05:02.904Z,99871.16
2023-05-01T04:10:07.240Z,99867.38
2023-05-01T04:15:09.985Z,99870.38
2023-05-01T04:20:12.532Z,99869.72
2023-05-01T04:25:15.220Z,99870.59
2023-05-01T04:30:18.276Z,99870.34
2023-05-01T04:35:20.156Z,99869.66
2023-05-01T04:40:22.171Z,99866.59
2023-05-01T04:45:24.785Z,99862.00
2023-05-01T04:50:26.916Z,99868.91
2023-05-01T04:55:30.875Z,99865.13
2023-05-01T05:00:52.559Z,99867.38
2023-05-01T05:05:56.983Z,99872.22
2023-05-01T05:11:00.359Z,99856.81
2023-05-01T05:16:06.753Z,99855.66
2023-05-01T05:21:09.162Z,99858.97
2023-05-01T05:26:11.082Z,99853.38
2023-05-01T05:31:12.853Z,99855.47
2023-05-01T05:36:14.678Z,99856.69
2023-05-01T05:41:21.713Z,99854.78
2023-05-01T05:46:26.102Z,99854.56
2023-05-01T05:51:31.060Z,99847.56
2023-05-01T05:56:33.042Z,99852.72
2023-05-01T06:01:37.376Z,99842.59
2023-05-01T06:06:39.263Z,99846.34
2023-05-01T06:11:41.612Z,99836.69
2023-05-01T06:16:43.544Z,99841.69
2023-05-01T06:21:45.479Z,99841.00
2023-05-01T06:26:47.310Z,99839.88
2023-05-01T06:31:49.117Z,99839.94
2023-05-01T06:36:51.298Z,99832.69
2023-05-01T06:41:53.077Z,99841.03
2023-05-01T06:47:05.449Z,99836.41
2023-05-01T06:52:08.002Z,99826.09
2023-05-01T06:57:09.767Z,99822.41
2023-05-01T07:02:11.625Z,99815.66
2023-05-01T07:07:13.530Z,99811.97
2023-05-01T07:12:15.457Z,99813.16
2023-05-01T07:17:17.319Z,99803.22
2023-05-01T07:22:19.557Z,99800.88
2023-05-01T07:27:21.473Z,99804.13
2023-05-01T07:32:23.351Z,99797.19
2023-05-01T07:37:27.018Z,99787.91
2023-05-01T07:42:28.891Z,99784.34
2023-05-01T07:47:30.816Z,99784.44
2023-05-01T07:52:33.048Z,99779.69
2023-05-01T07:57:35.995Z,99777.91
2023-05-01T08:02:37.902Z,99773.06
2023-05-01T08:07:39.750Z,99772.69
2023-05-01T08:12:41.631Z,99759.69
2023-05-01T08:17:43.438Z,99774.03
2023-05-01T08:22:45.233Z,99768.41
2023-05-01T08:27:47.790Z,99767.25
2023-05-01T08:32:49.974Z,99761.00
2023-05-01T08:37:51.708Z,99756.22
2023-05-01T08:42:55.712Z,99739.16
2023-05-01T08:47:58.921Z,99741.06
2023-05-01T08:53:02.253Z,99727.19
2023-05-01T08:58:06.234Z,99722.03
2023-05-01T09:03:11.536Z,99724.09
2023-05-01T09:08:13.385Z,99725.31
2023-05-01T09:13:15.292Z,99726.56
2023-05-01T09:18:17.078Z,99721.69
2023-05-01T09:23:20.301Z,99712.81
2023-05-01T09:28:46.923Z,99706.28
2023-05-01T09:34:02.196Z,99705.25
2023-05-01T09:39:04.274Z,99692.56
2023-05-01T09:44:17.271Z,99701.59
2023-05-01T09:49:19.105Z,99690.34
2023-05-01T09:54:20.965Z,99688.56
2023-05-01T09:59:22.781Z,99684.88
2023-05-01T10:04:33.950Z,99678.28
2023-05-01T10:09:35.693Z,99675.50
2023-05-01T10:15:07.862Z,99666.72
2023-05-01T10:20:15.714Z,99665.50
2023-05-01T10:25:18.242Z,99669.69
2023-05-01T10:30:20.411Z,99665.53
2023-05-01T10:35:28.025Z,99663.44
2023-05-01T10:40:49.343Z,99653.78
2023-05-01T10:45:52.013Z,99661.97
2023-05-01T10:51:12.499Z,99648.84
2023-05-01T10:56:27.088Z,99638.09
2023-05-01T11:01:32.899Z,99643.22
2023-05-01T11:06:36.125Z,99636.13
2023-05-01T11:11:37.888Z,99636.94
2023-05-01T11:16:39.850Z,99621.09
2023-05-01T11:21:42.185Z,99612.44
2023-05-01T11:26:44.645Z,99615.75
2023-05-01T11:31:48.715Z,99614.28
2023-05-01T11:36:51.940Z,99623.56
2023-05-01T11:42:09.577Z,99621.41
2023-05-01T11:47:11.476Z,99610.09
2023-05-01T11:52:13.283Z,99603.78
2023-05-01T11:57:15.048Z,99604.34
2023-05-01T12:02:20.585Z,99598.84
2023-05-01T12:07:23.411Z,99604.97
2023-05-01T12:12:25.348Z,99612.50
2023-05-01T12:17:28.481Z,99609.66
2023-05-01T12:22:30.421Z,99625.84
2023-05-01T12:27:33.034Z,99623.31
2023-05-01T12:32:35.184Z,99621.59
2023-05-01T12:37:37.062Z,99625.22
2023-05-01T12:42:39.000Z,99624.94
2023-05-01T12:47:40.955Z,99618.31
2023-05-01T12:52:43.090Z,99620.59
2023-05-01T12:57:54.992Z,99617.22
2023-05-01T13:03:03.629Z,99625.84
2023-05-01T13:08:06.272Z,99619.34
2023-05-01T13:13:08.110Z,99619.53
2023-05-01T13:18:10.094Z,99619.25
2023-05-01T13:23:15.696Z,99617.97
2023-05-01T13:28:21.004Z,99620.25
2023-05-01T13:33:22.797Z,99608.13
2023-05-01T13:38:25.137Z,99607.84
2023-05-01T13:43:27.152Z,99607.75
2023-05-01T13:48:30.788Z,99605.63
2023-05-01T13:53:32.984Z,99606.25
2023-05-01T13:58:34.863Z,99608.91
2023-05-01T14:03:41.105Z,99595.91
2023-05-01T14:08:44.568Z,99594.31
2023-05-01T14:13:48.529Z,99592.53
2023-05-01T14:18:54.649Z,99596.50
2023-05-01T14:24:00.401Z,99589.66
2023-05-01T14:29:02.161Z,99594.50
2023-05-01T14:34:06.757Z,99597.97
2023-05-01T14:39:08.634Z,99593.13
2023-05-01T14:44:15.949Z,99590.84
2023-05-01T14:49:22.552Z,99602.72
2023-05-01T14:54:24.379Z,99601.69
2023-05-01T14:59:26.720Z,99604.03
2023-05-01T15:04:28.743Z,99610.78
2023-05-01T15:09:31.054Z,99610.09
2023-05-01T15:14:32.777Z,99609.69
2023-05-01T15:19:34.552Z,99607.63
2023-05-01T15:24:36.459Z,99605.47
2023-05-01T15:29:38.548Z,99608.47
2023-05-01T15:34:41.476Z,99612.72
2023-05-01T15:39:43.314Z,99621.09
2023-05-01T15:44:45.131Z,99614.03
2023-05-01T15:49:46.912Z,99614.50
2023-05-01T15:54:48.807Z,99617.13
2023-05-01T15:59:53.947Z,99614.50
2023-05-01T16:04:55.872Z,99619.72
2023-05-01T16:09:58.351Z,99612.22
2023-05-01T16:15:05.401Z,99619.69
2023-05-01T16:20:11.390Z,99621.81
2023-05-01T16:25:16.695Z,99629.38
2023-05-01T16:30:18.675Z,99638.59
2023-05-01T16:35:26.319Z,99645.81
2023-05-01T16:40:28.092Z,99654.59
2023-05-01T16:45:31.401Z,99654.00
2023-05-01T16:50:34.062Z,99664.22
2023-05-01T16:55:35.779Z,99665.78
2023-05-01T17:00:37.860Z,99673.66
2023-05-01T17:05:39.652Z,99677.91
2023-05-01T17:10:41.598Z,99688.22
2023-05-01T17:15:43.438Z,99693.50
2023-05-01T17:20:45.215Z,99697.66
2023-05-01T17:25:46.961Z,99705.03
2023-05-01T17:30:48.699Z,99717.13
2023-05-01T17:35:51.857Z,99710.97
2023-05-01T17:40:53.587Z,99726.81
2023-05-01T17:45:55.381Z,99727.91
2023-05-01T17:50:58.474Z,99740.09
2023-05-01T17:56:00.233Z,99746.72
2023-05-01T18:01:03.644Z,99761.28
2023-05-01T18:06:05.579Z,99768.31
2023-05-01T18:11:07.481Z,99769.13
2023-05-01T18:16:11.151Z,99779.69
2023-05-01T18:21:12.993Z,99775.50
2023-05-01T18:26:14.791Z,99780.13
2023-05-01T18:31:16.674Z,99791.84
2023-05-01T18:36:18.437Z,99792.19
2023-05-01T18:41:20.165Z,99796.16
2023-05-01T18:46:22.098Z,99807.94
2023-05-01T18:51:24.210Z,99826.44
2023-05-01T18:56:27.620Z,99834.19
2023-05-01T19:01:29.586Z,99829.91
2023-05-01T19:06:31.642Z,99841.19
2023-05-01T19:11:33.382Z,99854.94
2023-05-01T19:16:35.173Z,99869.31
2023-05-01T19:21:36.988Z,99871.31
2023-05-01T19:26:38.754Z,99872.03
2023-05-01T19:31:40.640Z,99885.03
2023-05-01T19:36:42.388Z,99890.84
2023-05-01T19:41:44.821Z,99887.84
2023-05-01T19:46:46.584Z,99894.94
2023-05-01T19:51:48.379Z,99896.13
2023-05-01T19:56:51.825Z,99903.41
2023-05-01T20:01:53.814Z,99908.41
2023-05-01T20:06:55.893Z,99913.47
2023-05-01T20:11:57.786Z,99915.91
2023-05-01T20:16:59.645Z,99927.22
2023-05-01T20:22:01.554Z,99937.28
2023-05-01T20:27:04.442Z,99948.78
2023-05-01T20:32:06.242Z,99950.53
2023-05-01T20:37:08.015Z,99948.38
2023-05-01T20:42:09.823Z,99948.59
2023-05-01T20:47:11.679Z,99958.59
2023-05-01T20:52:13.540Z,99965.13
2023-05-01T20:57:18.722Z,99970.06
2023-05-01T21:02:20.544Z,99973.13
2023-05-01T21:07:22.375Z,99978.38
2023-05-01T21:12:24.276Z,99980.28
2023-05-01T21:17:26.888Z,99983.13
2023-05-01T21:22:28.675Z,99989.97
2023-05-01T21:27:31.070Z,99999.38
2023-05-01T21:32:40.054Z,99999.81
2023-05-01T21:37:43.496Z,99998.34
2023-05-01T21:42:45.835Z,99999.28
2023-05-01T21:47:50.998Z,100002.03
2023-05-01T21:52:52.885Z,100010.41
2023-05-01T21:57:55.066Z,100009.66
2023-05-01T22:02:57.094Z,100015.25
2023-05-01T22:07:59.970Z,100019.00
2023-05-01T22:13:02.062Z,100022.44
2023-05-01T22:18:03.922Z,100023.31
2023-05-01T22:23:05.865Z,100023.56
2023-05-01T22:28:08.661Z,100022.13
2023-05-01T22:33:10.437Z,100029.59
2023-05-01T22:38:12.285Z,100041.16
2023-05-01T22:43:14.000Z,100039.88
2023-05-01T22:48:15.894Z,100035.50
2023-05-01T22:53:17.644Z,100039.63
2023-05-01T22:58:19.366Z,100043.00
2023-05-01T23:03:21.242Z,100058.16
2023-05-01T23:08:23.059Z,100054.50
2023-05-01T23:13:24.884Z,100063.38
2023-05-01T23:18:33.392Z,100066.94
2023-05-01T23:23:35.739Z,100071.88
2023-05-01T23:28:44.338Z,100074.03
2023-05-01T23:33:46.601Z,100076.28
2023-05-01T23:38:48.513Z,100072.34
2023-05-01T23:43:50.315Z,100070.28
2023-05-01T23:48:52.457Z,100069.00
2023-05-01T23:53:54.251Z,100067.13
2023-05-01T23:58:56.110Z,100067.75
